sensor_id;sensor_type;location;lat;lon;timestamp;pressure;altitude;pressure_sealevel;temperature;humidity
15750;BME280;7976;52.526;13.326;2024-01-06T00:01:10;100092.16;;;2.51;100.00
15750;BME280;7976;52.526;13.326;2024-01-06T00:03:38;100094.75;;;2.49;100.00
15750;BME280;7976;52.526;13.326;2024-01-06T00:06:06;100089.63;;;2.46;100.00
15750;BME280;7976;52.526;13.326;2024-01-06T00:08:33;100087.03;;;2.48;100.00
15750;BME280;7976;52.526;13.326;2024-01-06T00:11:01;100090.47;;;2.48;100.00
15750;BME280;7976;52.526;13.326;2024-01-06T00:13:29;100101.56;;;2.53;100.00
15750;BME280;7976;52.526;13.326;2024-01-06T00:15:56;100088.66;;;2.53;100.00
15750;BME280;7976;52.526;13.326;2024-01-06T00:18:23;100091.22;;;2.55;100.00
15750;BME280;7976;52.526;13.326;2024-01-06T00:20:50;100101.56;;;2.53;100.00
15750;BME280;7976;52.526;13.326;2024-01-06T00:23:17;100099.91;;;2.51;100.00
15750;BME280;7976;52.526;13.326;2024-01-06T00:25:44;100096.50;;;2.49;100.00
15750;BME280;7976;52.526;13.326;2024-01-06T00:28:12;100090.41;;;2.51;100.00
15750;BME280;7976;52.526;13.326;2024-01-06T00:30:39;100101.56;;;2.53;100.00
15750;BME280;7976;52.526;13.326;2024-01-06T00:33:06;100095.56;;;2.53;100.00
15750;BME280;7976;52.526;13.326;2024-01-06T00:35:33;100100.75;;;2.51;100.00
15750;BME280;7976;52.526;13.326;2024-01-06T00:37:59;100093.00;;;2.51;100.00
15750;BME280;7976;52.526;13.326;2024-01-06T00:40:27;100098.19;;;2.50;100.00
15750;BME280;7976;52.526;13.326;2024-01-06T00:42:54;100105.06;;;2.49;100.00
15750;BME280;7976;52.526;13.326;2024-01-06T00:45:22;100108.53;;;2.48;100.00
15750;BME280;7976;52.526;13.326;2024-01-06T00:47:49;100110.22;;;2.49;100.00
15750;BME280;7976;52.526;13.326;2024-01-06T00:50:17;100115.38;;;2.49;100.00
15750;BME280;7976;52.526;13.326;2024-01-06T00:52:44;100107.75;;;2.43;100.00
15750;BME280;7976;52.526;13.326;2024-01-06T00:55:11;100108.69;;;2.38;100.00
15750;BME280;7976;52.526;13.326;2024-01-06T00:57:38;100112.13;;;2.38;100.00
15750;BME280;7976;52.526;13.326;2024-01-06T01:00:07;100107.88;;;2.36;100.00
15750;BME280;7976;52.526;13.326;2024-01-06T01:02:35;100117.34;;;2.35;100.00
15750;BME280;7976;52.526;13.326;2024-01-06T01:05:03;100118.19;;;2.36;100.00
15750;BME280;7976;52.526;13.326;2024-01-06T01:07:30;100115.63;;;2.34;100.00
15750;BME280;7976;52.526;13.326;2024-01-06T01:09:57;100123.34;;;2.34;100.00
15750;BME280;7976;52.526;13.326;2024-01-06T01:12:24;100126.84;;;2.32;100.00
15750;BME280;7976;52.526;13.326;2024-01-06T01:14:51;100134.63;;;2.30;100.00
15750;BME280;7976;52.526;13.326;2024-01-06T01:17:18;100138.91;;;2.31;100.00
15750;BME280;7976;52.526;13.326;2024-01-06T01:19:46;100138.03;;;2.32;100.00
15750;BME280;7976;52.526;13.326;2024-01-06T01:22:14;100142.31;;;2.33;100.00
15750;BME280;7976;52.526;13.326;2024-01-06T01:24:41;100141.41;;;2.37;100.00
15750;BME280;7976;52.526;13.326;2024-01-06T01:27:08;100149.09;;;2.40;100.00
15750;BME280;7976;52.526;13.326;2024-01-06T01:29:36;100149.97;;;2.39;100.00
15750;BME280;7976;52.526;13.326;2024-01-06T01:32:03;100151.72;;;2.37;100.00
15750;BME280;7976;52.526;13.326;2024-01-06T01:34:30;100139.69;;;2.36;100.00
15750;BME280;7976;52.526;13.326;2024-01-06T01:37:00;100137.16;;;2.33;100.00
15750;BME280;7976;52.526;13.326;2024-01-06T01:39:27;100145.78;;;2.32;100.00
15750;BME280;7976;52.526;13.326;2024-01-06T01:41:54;100135.44;;;2.34;100.00
15750;BME280;7976;52.526;13.326;2024-01-06T01:44:20;100144.84;;;2.36;100.00
15750;BME280;7976;52.526;13.326;2024-01-06T01:46:48;100143.16;;;2.35;99.84
15750;BME280;7976;52.526;13.326;2024-01-06T01:49:15;100144.91;;;2.33;100.00
15750;BME280;7976;52.526;13.326;2024-01-06T01:51:42;100140.63;;;2.29;100.00
15750;BME280;7976;52.526;13.326;2024-01-06T01:54:11;100146.69;;;2.28;99.96
15750;BME280;7976;52.526;13.326;2024-01-06T01:56:40;100149.25;;;2.28;99.95
15750;BME280;7976;52.526;13.326;2024-01-06T01:59:11;100158.69;;;2.29;100.00
15750;BME280;7976;52.526;13.326;2024-01-06T02:01:39;100154.44;;;2.28;100.00
15750;BME280;7976;52.526;13.326;2024-01-06T02:04:07;100150.97;;;2.29;100.00
15750;BME280;7976;52.526;13.326;2024-01-06T02:06:34;100155.25;;;2.30;100.00
15750;BME280;7976;52.526;13.326;2024-01-06T02:09:01;100155.25;;;2.30;100.00
15750;BME280;7976;52.526;13.326;2024-01-06T02:11:29;100163.00;;;2.30;99.83
15750;BME280;7976;52.526;13.326;2024-01-06T02:13:56;100161.25;;;2.32;100.00
15750;BME280;7976;52.526;13.326;2024-01-06T02:16:23;100168.06;;;2.36;100.00
15750;BME280;7976;52.526;13.326;2024-01-06T02:18:50;100165.47;;;2.38;100.00
15750;BME280;7976;52.526;13.326;2024-01-06T02:21:19;100168.81;;;2.44;100.00
15750;BME280;7976;52.526;13.326;2024-01-06T02:23:49;100169.59;;;2.49;100.00
15750;BME280;7976;52.526;13.326;2024-01-06T02:26:16;100165.28;;;2.51;99.97
15750;BME280;7976;52.526;13.326;2024-01-06T02:28:43;100165.28;;;2.51;99.78
15750;BME280;7976;52.526;13.326;2024-01-06T02:31:13;100173.03;;;2.50;99.59
15750;BME280;7976;52.526;13.326;2024-01-06T02:33:40;100176.53;;;2.47;99.60
15750;BME280;7976;52.526;13.326;2024-01-06T02:36:07;100175.69;;;2.45;99.49
15750;BME280;7976;52.526;13.326;2024-01-06T02:38:34;100174.88;;;2.42;99.53
15750;BME280;7976;52.526;13.326;2024-01-06T02:41:03;100177.50;;;2.40;99.27
15750;BME280;7976;52.526;13.326;2024-01-06T02:43:29;100186.09;;;2.41;99.05
15750;BME280;7976;52.526;13.326;2024-01-06T02:45:56;100186.09;;;2.39;99.08
15750;BME280;7976;52.526;13.326;2024-01-06T02:48:23;100186.94;;;2.41;99.29
15750;BME280;7976;52.526;13.326;2024-01-06T02:50:50;100187.00;;;2.37;99.01
15750;BME280;7976;52.526;13.326;2024-01-06T02:53:17;100189.59;;;2.35;98.80
15750;BME280;7976;52.526;13.326;2024-01-06T02:55:43;100184.44;;;2.35;98.85
15750;BME280;7976;52.526;13.326;2024-01-06T02:58:11;100188.75;;;2.35;98.70
15750;BME280;7976;52.526;13.326;2024-01-06T03:00:38;100194.78;;;2.34;98.62
15750;BME280;7976;52.526;13.326;2024-01-06T03:03:05;100193.94;;;2.33;98.74
15750;BME280;7976;52.526;13.326;2024-01-06T03:05:32;100189.59;;;2.35;98.82
15750;BME280;7976;52.526;13.326;2024-01-06T03:07:59;100195.63;;;2.36;98.84
15750;BME280;7976;52.526;13.326;2024-01-06T03:10:26;100192.13;;;2.38;98.98
15750;BME280;7976;52.526;13.326;2024-01-06T03:12:53;100189.59;;;2.35;98.68
15750;BME280;7976;52.526;13.326;2024-01-06T03:15:22;100191.31;;;2.35;98.83
15750;BME280;7976;52.526;13.326;2024-01-06T03:17:49;100205.13;;;2.32;98.34
15750;BME280;7976;52.526;13.326;2024-01-06T03:20:15;100207.72;;;2.29;98.59
15750;BME280;7976;52.526;13.326;2024-01-06T03:22:42;100198.28;;;2.28;98.77
15750;BME280;7976;52.526;13.326;2024-01-06T03:25:09;100194.81;;;2.29;98.81
15750;BME280;7976;52.526;13.326;2024-01-06T03:27:36;100199.97;;;2.32;98.61
15750;BME280;7976;52.526;13.326;2024-01-06T03:30:04;100202.56;;;2.29;98.66
15750;BME280;7976;52.526;13.326;2024-01-06T03:32:32;100206.94;;;2.26;98.61
15750;BME280;7976;52.526;13.326;2024-01-06T03:34:59;100200.03;;;2.26;98.55
15750;BME280;7976;52.526;13.326;2024-01-06T03:37:26;100215.50;;;2.26;98.63
15750;BME280;7976;52.526;13.326;2024-01-06T03:39:53;100223.28;;;2.25;98.70
15750;BME280;7976;52.526;13.326;2024-01-06T03:42:20;100225.84;;;2.26;98.61
15750;BME280;7976;52.526;13.326;2024-01-06T03:44:47;100221.50;;;2.30;98.81
15750;BME280;7976;52.526;13.326;2024-01-06T03:47:14;100229.25;;;2.30;98.48
15750;BME280;7976;52.526;13.326;2024-01-06T03:49:42;100220.63;;;2.29;98.58
15750;BME280;7976;52.526;13.326;2024-01-06T03:52:09;100225.84;;;2.25;98.36
15750;BME280;7976;52.526;13.326;2024-01-06T03:54:36;100225.03;;;2.21;98.37
15750;BME280;7976;52.526;13.326;2024-01-06T03:57:03;100227.56;;;2.24;98.77
15750;BME280;7976;52.526;13.326;2024-01-06T03:59:30;100227.56;;;2.24;98.75
15750;BME280;7976;52.526;13.326;2024-01-06T04:01:57;100229.31;;;2.24;98.50
15750;BME280;7976;52.526;13.326;2024-01-06T04:04:24;100233.63;;;2.23;98.86
15750;BME280;7976;52.526;13.326;2024-01-06T04:06:52;100230.97;;;2.28;99.04
15750;BME280;7976;52.526;13.326;2024-01-06T04:09:19;100234.34;;;2.33;99.21
15750;BME280;7976;52.526;13.326;2024-01-06T04:11:46;100241.19;;;2.38;99.16
15750;BME280;7976;52.526;13.326;2024-01-06T04:14:13;100242.88;;;2.39;98.87
15750;BME280;7976;52.526;13.326;2024-01-06T04:16:40;100244.63;;;2.37;98.69
15750;BME280;7976;52.526;13.326;2024-01-06T04:19:09;100246.38;;;2.35;98.62
15750;BME280;7976;52.526;13.326;2024-01-06T04:21:38;100253.25;;;2.35;98.61
15750;BME280;7976;52.526;13.326;2024-01-06T04:24:07;100256.72;;;2.34;98.62
15750;BME280;7976;52.526;13.326;2024-01-06T04:26:33;100250.69;;;2.33;98.91
15750;BME280;7976;52.526;13.326;2024-01-06T04:29:00;100255.84;;;2.35;98.75
15750;BME280;7976;52.526;13.326;2024-01-06T04:31:27;100261.81;;;2.38;98.72
15750;BME280;7976;52.526;13.326;2024-01-06T04:33:54;100263.56;;;2.36;98.75
15750;BME280;7976;52.526;13.326;2024-01-06T04:36:21;100273.03;;;2.34;98.46
15750;BME280;7976;52.526;13.326;2024-01-06T04:38:48;100270.47;;;2.34;98.72
15750;BME280;7976;52.526;13.326;2024-01-06T04:41:16;100270.50;;;2.31;98.61
15750;BME280;7976;52.526;13.326;2024-01-06T04:43:43;100270.53;;;2.28;98.66
15750;BME280;7976;52.526;13.326;2024-01-06T04:46:10;100271.41;;;2.29;98.71
15750;BME280;7976;52.526;13.326;2024-01-06T04:48:38;100273.97;;;2.30;98.83
15750;BME280;7976;52.526;13.326;2024-01-06T04:51:04;100273.09;;;2.31;98.74
15750;BME280;7976;52.526;13.326;2024-01-06T04:53:35;100276.56;;;2.30;98.75
15750;BME280;7976;52.526;13.326;2024-01-06T04:56:02;100275.66;;;2.31;98.72
15750;BME280;7976;52.526;13.326;2024-01-06T04:58:30;100279.13;;;2.30;98.74
15750;BME280;7976;52.526;13.326;2024-01-06T05:00:57;100280.00;;;2.28;98.56
15750;BME280;7976;52.526;13.326;2024-01-06T05:03:24;100282.59;;;2.26;98.83
15750;BME280;7976;52.526;13.326;2024-01-06T05:05:51;100283.47;;;2.27;98.85
15750;BME280;7976;52.526;13.326;2024-01-06T05:08:18;100284.34;;;2.27;98.96
15750;BME280;7976;52.526;13.326;2024-01-06T05:10:45;100289.47;;;2.29;99.05
15750;BME280;7976;52.526;13.326;2024-01-06T05:13:12;100288.59;;;2.28;98.92
15750;BME280;7976;52.526;13.326;2024-01-06T05:15:40;100281.78;;;2.26;98.76
15750;BME280;7976;52.526;13.326;2024-01-06T05:18:07;100293.84;;;2.22;98.69
15750;BME280;7976;52.526;13.326;2024-01-06T05:20:34;100292.09;;;2.23;98.97
15750;BME280;7976;52.526;13.326;2024-01-06T05:23:01;100296.44;;;2.22;99.00
15750;BME280;7976;52.526;13.326;2024-01-06T05:25:28;100292.97;;;2.23;99.18
15750;BME280;7976;52.526;13.326;2024-01-06T05:27:55;100301.59;;;2.22;98.98
15750;BME280;7976;52.526;13.326;2024-01-06T05:30:21;100299.03;;;2.19;98.97
15750;BME280;7976;52.526;13.326;2024-01-06T05:32:49;100294.75;;;2.18;99.11
15750;BME280;7976;52.526;13.326;2024-01-06T05:35:17;100303.38;;;2.17;99.11
15750;BME280;7976;52.526;13.326;2024-01-06T05:37:43;100308.50;;;2.19;99.20
15750;BME280;7976;52.526;13.326;2024-01-06T05:40:11;100308.53;;;2.17;99.23
15750;BME280;7976;52.526;13.326;2024-01-06T05:42:38;100301.63;;;2.16;99.10
15750;BME280;7976;52.526;13.326;2024-01-06T05:45:05;100311.91;;;2.19;99.26
15750;BME280;7976;52.526;13.326;2024-01-06T05:47:32;100322.25;;;2.18;98.89
15750;BME280;7976;52.526;13.326;2024-01-06T05:50:01;100332.59;;;2.16;98.91
15750;BME280;7976;52.526;13.326;2024-01-06T05:52:27;100332.63;;;2.13;99.16
15750;BME280;7976;52.526;13.326;2024-01-06T05:54:54;100328.34;;;2.14;99.00
15750;BME280;7976;52.526;13.326;2024-01-06T05:57:21;100341.22;;;2.17;99.41
15750;BME280;7976;52.526;13.326;2024-01-06T05:59:48;100334.28;;;2.22;99.51
15750;BME280;7976;52.526;13.326;2024-01-06T06:02:15;100340.28;;;2.22;99.35
15750;BME280;7976;52.526;13.326;2024-01-06T06:04:43;100345.44;;;2.24;99.49
15750;BME280;7976;52.526;13.326;2024-01-06T06:07:11;100342.00;;;2.22;99.06
15750;BME280;7976;52.526;13.326;2024-01-06T06:09:38;100349.78;;;2.20;99.15
15750;BME280;7976;52.526;13.326;2024-01-06T06:12:06;100358.38;;;2.19;99.12
15750;BME280;7976;52.526;13.326;2024-01-06T06:14:33;100367.00;;;2.18;99.01
15750;BME280;7976;52.526;13.326;2024-01-06T06:17:00;100369.59;;;2.15;98.68
15750;BME280;7976;52.526;13.326;2024-01-06T06:19:27;100371.38;;;2.10;98.97
15750;BME280;7976;52.526;13.326;2024-01-06T06:21:54;100377.41;;;2.08;99.05
15750;BME280;7976;52.526;13.326;2024-01-06T06:24:23;100387.72;;;2.06;98.93
15750;BME280;7976;52.526;13.326;2024-01-06T06:26:49;100390.38;;;2.00;98.85
15750;BME280;7976;52.526;13.326;2024-01-06T06:29:16;100392.97;;;2.00;98.96
15750;BME280;7976;52.526;13.326;2024-01-06T06:31:43;100398.13;;;2.00;99.19
15750;BME280;7976;52.526;13.326;2024-01-06T06:34:12;100398.13;;;2.00;99.37
15750;BME280;7976;52.526;13.326;2024-01-06T06:36:39;100411.88;;;1.98;98.91
15750;BME280;7976;52.526;13.326;2024-01-06T06:39:05;100411.91;;;1.96;99.27
15750;BME280;7976;52.526;13.326;2024-01-06T06:41:34;100418.78;;;1.97;99.41
15750;BME280;7976;52.526;13.326;2024-01-06T06:44:00;100413.63;;;1.94;99.14
15750;BME280;7976;52.526;13.326;2024-01-06T06:46:27;100413.66;;;1.91;99.16
15750;BME280;7976;52.526;13.326;2024-01-06T06:48:54;100421.41;;;1.91;99.30
15750;BME280;7976;52.526;13.326;2024-01-06T06:51:21;100432.56;;;1.93;99.34
15750;BME280;7976;52.526;13.326;2024-01-06T06:53:50;100436.88;;;1.91;99.07
15750;BME280;7976;52.526;13.326;2024-01-06T06:56:17;100439.44;;;1.91;99.46
15750;BME280;7976;52.526;13.326;2024-01-06T06:58:46;100445.47;;;1.92;99.31
15750;BME280;7976;52.526;13.326;2024-01-06T07:01:13;100452.34;;;1.91;99.44
15750;BME280;7976;52.526;13.326;2024-01-06T07:03:40;100450.59;;;1.95;99.53
15750;BME280;7976;52.526;13.326;2024-01-06T07:06:07;100448.00;;;1.96;99.40
15750;BME280;7976;52.526;13.326;2024-01-06T07:08:34;100459.19;;;1.97;99.26
15750;BME280;7976;52.526;13.326;2024-01-06T07:11:01;100457.50;;;1.96;99.32
15750;BME280;7976;52.526;13.326;2024-01-06T07:13:28;100472.97;;;1.96;99.35
15750;BME280;7976;52.526;13.326;2024-01-06T07:15:56;100472.97;;;1.91;99.10
15750;BME280;7976;52.526;13.326;2024-01-06T07:18:23;100470.38;;;1.91;99.04
15750;BME280;7976;52.526;13.326;2024-01-06T07:20:50;100479.88;;;1.91;99.18
15750;BME280;7976;52.526;13.326;2024-01-06T07:23:17;100468.72;;;1.87;99.01
15750;BME280;7976;52.526;13.326;2024-01-06T07:25:44;100476.47;;;1.83;99.37
15750;BME280;7976;52.526;13.326;2024-01-06T07:28:11;100486.78;;;1.86;99.35
15750;BME280;7976;52.526;13.326;2024-01-06T07:30:38;100493.66;;;1.84;99.40
15750;BME280;7976;52.526;13.326;2024-01-06T07:33:06;100498.84;;;1.79;99.10
15750;BME280;7976;52.526;13.326;2024-01-06T07:35:34;100499.72;;;1.78;99.63
15750;BME280;7976;52.526;13.326;2024-01-06T07:38:01;100504.00;;;1.79;99.36
15750;BME280;7976;52.526;13.326;2024-01-06T07:40:27;100503.16;;;1.77;98.88
15750;BME280;7976;52.526;13.326;2024-01-06T07:42:54;100506.63;;;1.73;99.21
15750;BME280;7976;52.526;13.326;2024-01-06T07:45:21;100511.78;;;1.72;99.10
15750;BME280;7976;52.526;13.326;2024-01-06T07:47:48;100511.81;;;1.67;99.17
15750;BME280;7976;52.526;13.326;2024-01-06T07:50:16;100520.41;;;1.63;99.24
15750;BME280;7976;52.526;13.326;2024-01-06T07:52:43;100517.88;;;1.60;99.40
15750;BME280;7976;52.526;13.326;2024-01-06T07:55:10;100523.03;;;1.60;99.76
15750;BME280;7976;52.526;13.326;2024-01-06T07:57:37;100529.88;;;1.63;99.86
15750;BME280;7976;52.526;13.326;2024-01-06T08:00:06;100529.03;;;1.59;99.44
15750;BME280;7976;52.526;13.326;2024-01-06T08:02:38;100535.91;;;1.59;99.82
15750;BME280;7976;52.526;13.326;2024-01-06T08:05:04;100540.22;;;1.57;99.48
15750;BME280;7976;52.526;13.326;2024-01-06T08:07:34;100537.66;;;1.55;99.76
15750;BME280;7976;52.526;13.326;2024-01-06T08:10:00;100553.97;;;1.53;99.76
15750;BME280;7976;52.526;13.326;2024-01-06T08:12:30;100549.69;;;1.52;100.00
15750;BME280;7976;52.526;13.326;2024-01-06T08:14:57;100558.28;;;1.51;99.59
15750;BME280;7976;52.526;13.326;2024-01-06T08:17:24;100565.16;;;1.49;99.92
15750;BME280;7976;52.526;13.326;2024-01-06T08:19:51;100566.00;;;1.48;100.00
15750;BME280;7976;52.526;13.326;2024-01-06T08:22:18;100555.72;;;1.51;100.00
15750;BME280;7976;52.526;13.326;2024-01-06T08:24:46;100566.03;;;1.52;100.00
15750;BME280;7976;52.526;13.326;2024-01-06T08:27:13;100572.88;;;1.53;100.00
15750;BME280;7976;52.526;13.326;2024-01-06T08:29:39;100572.03;;;1.51;100.00
15750;BME280;7976;52.526;13.326;2024-01-06T08:32:07;100578.91;;;1.51;100.00
15750;BME280;7976;52.526;13.326;2024-01-06T08:34:34;100578.06;;;1.49;100.00
15750;BME280;7976;52.526;13.326;2024-01-06T08:37:01;100585.81;;;1.46;100.00
15750;BME280;7976;52.526;13.326;2024-01-06T08:39:29;100588.38;;;1.47;100.00
15750;BME280;7976;52.526;13.326;2024-01-06T08:41:57;100588.34;;;1.50;100.00
15750;BME280;7976;52.526;13.326;2024-01-06T08:44:24;100597.78;;;1.51;100.00
15750;BME280;7976;52.526;13.326;2024-01-06T08:46:51;100607.25;;;1.49;99.89
15750;BME280;7976;52.526;13.326;2024-01-06T08:49:18;100608.13;;;1.48;100.00
15750;BME280;7976;52.526;13.326;2024-01-06T08:51:44;100606.41;;;1.50;100.00
15750;BME280;7976;52.526;13.326;2024-01-06T08:54:11;100608.97;;;1.53;100.00
15750;BME280;7976;52.526;13.326;2024-01-06T08:56:39;100612.38;;;1.58;99.97
15750;BME280;7976;52.526;13.326;2024-01-06T08:59:07;100615.84;;;1.56;99.71
15750;BME280;7976;52.526;13.326;2024-01-06T09:01:34;100624.41;;;1.55;99.39
15750;BME280;7976;52.526;13.326;2024-01-06T09:04:03;100623.56;;;1.57;99.72
15750;BME280;7976;52.526;13.326;2024-01-06T09:06:30;100629.56;;;1.58;99.47
15750;BME280;7976;52.526;13.326;2024-01-06T09:08:57;100635.59;;;1.58;99.38
15750;BME280;7976;52.526;13.326;2024-01-06T09:11:23;100643.31;;;1.60;99.18
15750;BME280;7976;52.526;13.326;2024-01-06T09:13:50;100648.47;;;1.61;99.14
15750;BME280;7976;52.526;13.326;2024-01-06T09:16:19;100644.19;;;1.60;98.83
15750;BME280;7976;52.526;13.326;2024-01-06T09:18:46;100651.03;;;1.61;98.86
15750;BME280;7976;52.526;13.326;2024-01-06T09:21:13;100652.75;;;1.56;98.35
15750;BME280;7976;52.526;13.326;2024-01-06T09:23:40;100653.66;;;1.51;98.34
15750;BME280;7976;52.526;13.326;2024-01-06T09:26:07;100658.81;;;1.51;98.64
15750;BME280;7976;52.526;13.326;2024-01-06T09:28:33;100663.94;;;1.55;98.37
15750;BME280;7976;52.526;13.326;2024-01-06T09:31:00;100667.38;;;1.57;98.52
15750;BME280;7976;52.526;13.326;2024-01-06T09:33:29;100672.53;;;1.60;98.39
15750;BME280;7976;52.526;13.326;2024-01-06T09:35:55;100676.78;;;1.64;98.25
15750;BME280;7976;52.526;13.326;2024-01-06T09:38:23;100677.66;;;1.66;98.45
15750;BME280;7976;52.526;13.326;2024-01-06T09:40:50;100675.09;;;1.63;98.11
15750;BME280;7976;52.526;13.326;2024-01-06T09:43:17;100678.56;;;1.53;97.71
15750;BME280;7976;52.526;13.326;2024-01-06T09:45:53;100684.56;;;1.55;97.91
15750;BME280;7976;52.526;13.326;2024-01-06T09:48:30;100681.97;;;1.58;97.89
15750;BME280;7976;52.526;13.326;2024-01-06T09:51:02;100675.13;;;1.57;97.86
15750;BME280;7976;52.526;13.326;2024-01-06T09:53:36;100688.84;;;1.59;97.53
15750;BME280;7976;52.526;13.326;2024-01-06T09:56:09;100689.69;;;1.63;97.98
15750;BME280;7976;52.526;13.326;2024-01-06T09:58:39;100698.28;;;1.65;97.44
15750;BME280;7976;52.526;13.326;2024-01-06T10:01:07;100694.84;;;1.64;97.56
15750;BME280;7976;52.526;13.326;2024-01-06T10:03:37;100695.72;;;1.60;97.20
15750;BME280;7976;52.526;13.326;2024-01-06T10:06:05;100700.88;;;1.62;97.13
15750;BME280;7976;52.526;13.326;2024-01-06T10:08:33;100701.75;;;1.64;97.38
15750;BME280;7976;52.526;13.326;2024-01-06T10:11:01;100702.59;;;1.63;96.86
15750;BME280;7976;52.526;13.326;2024-01-06T10:13:28;100713.78;;;1.59;97.07
15750;BME280;7976;52.526;13.326;2024-01-06T10:15:56;100711.22;;;1.57;96.64
15750;BME280;7976;52.526;13.326;2024-01-06T10:18:24;100713.78;;;1.59;96.70
15750;BME280;7976;52.526;13.326;2024-01-06T10:20:52;100717.22;;;1.56;96.60
15750;BME280;7976;52.526;13.326;2024-01-06T10:23:22;100727.53;;;1.56;96.34
15750;BME280;7976;52.526;13.326;2024-01-06T10:25:52;100722.38;;;1.55;96.22
15750;BME280;7976;52.526;13.326;2024-01-06T10:28:21;100711.19;;;1.51;95.99
15750;BME280;7976;52.526;13.326;2024-01-06T10:30:51;100698.31;;;1.48;95.92
15750;BME280;7976;52.526;13.326;2024-01-06T10:33:19;100709.50;;;1.47;96.09
15750;BME280;7976;52.526;13.326;2024-01-06T10:35:46;100700.91;;;1.47;95.90
15750;BME280;7976;52.526;13.326;2024-01-06T10:38:15;100711.22;;;1.45;95.93
15750;BME280;7976;52.526;13.326;2024-01-06T10:40:56;100717.25;;;1.46;96.23
15750;BME280;7976;52.526;13.326;2024-01-06T10:43:26;100730.13;;;1.52;96.15
15750;BME280;7976;52.526;13.326;2024-01-06T10:45:58;100723.22;;;1.57;96.17
15750;BME280;7976;52.526;13.326;2024-01-06T10:48:31;100711.22;;;1.57;95.84
15750;BME280;7976;52.526;13.326;2024-01-06T10:50:59;100718.94;;;1.60;95.88
15750;BME280;7976;52.526;13.326;2024-01-06T10:53:30;100718.06;;;1.57;95.61
15750;BME280;7976;52.526;13.326;2024-01-06T10:55:58;100721.53;;;1.57;95.51
15750;BME280;7976;52.526;13.326;2024-01-06T10:58:27;100715.50;;;1.55;95.39
15750;BME280;7976;52.526;13.326;2024-01-06T11:00:56;100716.34;;;1.54;95.23
15750;BME280;7976;52.526;13.326;2024-01-06T11:03:24;100710.34;;;1.52;95.26
15750;BME280;7976;52.526;13.326;2024-01-06T11:05:51;100713.78;;;1.53;95.16
15750;BME280;7976;52.526;13.326;2024-01-06T11:08:19;100723.25;;;1.52;95.21
15750;BME280;7976;52.526;13.326;2024-01-06T11:10:48;100723.22;;;1.49;95.15
15750;BME280;7976;52.526;13.326;2024-01-06T11:13:21;100723.22;;;1.46;94.88
15750;BME280;7976;52.526;13.326;2024-01-06T11:15:50;100723.25;;;1.43;95.08
15750;BME280;7976;52.526;13.326;2024-01-06T11:18:32;100726.69;;;1.47;95.28
15750;BME280;7976;52.526;13.326;2024-01-06T11:21:16;100728.38;;;1.46;94.98
15750;BME280;7976;52.526;13.326;2024-01-06T11:24:15;100722.38;;;1.43;95.08
15750;BME280;7976;52.526;13.326;2024-01-06T11:26:51;100729.25;;;1.47;95.02
15750;BME280;7976;52.526;13.326;2024-01-06T11:29:19;100731.81;;;1.48;94.98
15750;BME280;7976;52.526;13.326;2024-01-06T11:32:20;100730.13;;;1.47;94.57
15750;BME280;7976;52.526;13.326;2024-01-06T11:34:52;100725.81;;;1.45;94.56
15750;BME280;7976;52.526;13.326;2024-01-06T11:37:25;100724.97;;;1.38;94.58
15750;BME280;7976;52.526;13.326;2024-01-06T11:39:52;100731.81;;;1.39;94.51
15750;BME280;7976;52.526;13.326;2024-01-06T11:42:21;100737.00;;;1.42;94.53
15750;BME280;7976;52.526;13.326;2024-01-06T11:44:51;100734.44;;;1.42;94.24
15750;BME280;7976;52.526;13.326;2024-01-06T11:47:18;100734.41;;;1.47;94.67
15750;BME280;7976;52.526;13.326;2024-01-06T11:49:54;100723.22;;;1.46;94.11
15750;BME280;7976;52.526;13.326;2024-01-06T11:52:22;100724.09;;;1.47;94.36
15750;BME280;7976;52.526;13.326;2024-01-06T11:54:52;100724.97;;;1.47;94.34
15750;BME280;7976;52.526;13.326;2024-01-06T11:57:22;100723.22;;;1.46;94.12
15750;BME280;7976;52.526;13.326;2024-01-06T11:59:50;100724.94;;;1.44;93.94
15750;BME280;7976;52.526;13.326;2024-01-06T12:02:18;100725.81;;;1.46;94.21
15750;BME280;7976;52.526;13.326;2024-01-06T12:04:49;100725.81;;;1.42;93.99
15750;BME280;7976;52.526;13.326;2024-01-06T12:07:17;100731.81;;;1.36;93.90
15750;BME280;7976;52.526;13.326;2024-01-06T12:09:45;100729.25;;;1.36;94.15
15750;BME280;7976;52.526;13.326;2024-01-06T12:12:15;100718.94;;;1.38;93.96
15750;BME280;7976;52.526;13.326;2024-01-06T12:14:44;100729.25;;;1.39;93.87
15750;BME280;7976;52.526;13.326;2024-01-06T12:17:12;100731.00;;;1.39;94.01
15750;BME280;7976;52.526;13.326;2024-01-06T12:19:40;100739.56;;;1.36;93.84
15750;BME280;7976;52.526;13.326;2024-01-06T12:22:11;100732.72;;;1.34;94.02
15750;BME280;7976;52.526;13.326;2024-01-06T12:24:39;100739.56;;;1.35;93.68
15750;BME280;7976;52.526;13.326;2024-01-06T12:27:07;100750.75;;;1.35;93.80
15750;BME280;7976;52.526;13.326;2024-01-06T12:29:38;100747.28;;;1.33;93.59
15750;BME280;7976;52.526;13.326;2024-01-06T12:32:08;100739.56;;;1.28;93.30
15750;BME280;7976;52.526;13.326;2024-01-06T12:34:35;100743.03;;;1.31;93.12
15750;BME280;7976;52.526;13.326;2024-01-06T12:37:03;100746.44;;;1.28;93.43
15750;BME280;7976;52.526;13.326;2024-01-06T12:39:30;100741.28;;;1.31;93.19
15750;BME280;7976;52.526;13.326;2024-01-06T12:41:58;100757.59;;;1.36;93.37
15750;BME280;7976;52.526;13.326;2024-01-06T12:44:26;100761.06;;;1.35;92.97
15750;BME280;7976;52.526;13.326;2024-01-06T12:46:53;100759.31;;;1.33;92.68
15750;BME280;7976;52.526;13.326;2024-01-06T12:49:21;100762.75;;;1.33;92.87
15750;BME280;7976;52.526;13.326;2024-01-06T12:51:49;100769.63;;;1.31;92.79
15750;BME280;7976;52.526;13.326;2024-01-06T12:54:16;100770.50;;;1.35;92.62
15750;BME280;7976;52.526;13.326;2024-01-06T12:56:43;100773.06;;;1.28;92.38
15750;BME280;7976;52.526;13.326;2024-01-06T12:59:11;100770.50;;;1.27;92.41
15750;BME280;7976;52.526;13.326;2024-01-06T13:01:38;100769.63;;;1.28;92.25